createdAt,value
2023-06-27T00:01:48.503Z,73.77
2023-06-27T00:06:50.562Z,73.92
2023-06-27T00:11:52.288Z,74.21
2023-06-27T00:16:54.151Z,74.03
2023-06-27T00:21:56.580Z,74.00
2023-06-27T00:26:58.879Z,74.24
2023-06-27T00:32:00.725Z,74.42
2023-06-27T00:37:02.494Z,75.37
2023-06-27T00:42:05.189Z,75.49
2023-06-27T00:47:07.514Z,74.95
2023-06-27T00:52:09.487Z,74.43
2023-06-27T00:57:11.308Z,73.48
2023-06-27T01:02:15.116Z,71.89
2023-06-27T01:07:28.380Z,72.45
2023-06-27T01:12:48.040Z,72.64
2023-06-27T01:17:51.238Z,73.01
2023-06-27T01:23:28.197Z,73.27
2023-06-27T01:28:30.005Z,72.60
2023-06-27T01:33:42.860Z,72.52
2023-06-27T01:39:11.690Z,72.50
2023-06-27T01:44:15.428Z,72.48
2023-06-27T01:49:17.360Z,73.03
2023-06-27T01:54:19.086Z,74.98
2023-06-27T01:59:20.948Z,75.68
2023-06-27T02:04:22.611Z,75.44
2023-06-27T02:09:24.518Z,76.38
2023-06-27T02:14:26.405Z,76.57
2023-06-27T02:19:28.117Z,76.80
2023-06-27T02:24:29.748Z,76.61
2023-06-27T02:29:31.994Z,76.40
2023-06-27T02:34:33.667Z,76.88
2023-06-27T02:39:35.427Z,76.35
2023-06-27T02:44:37.163Z,76.61
2023-06-27T02:49:38.931Z,76.48
2023-06-27T02:54:40.674Z,76.54
2023-06-27T02:59:42.319Z,77.02
2023-06-27T03:04:45.723Z,76.15
2023-06-27T03:09:47.626Z,76.38
2023-06-27T03:14:52.431Z,75.98
2023-06-27T03:19:55.021Z,75.96
2023-06-27T03:24:56.828Z,75.68
2023-06-27T03:29:59.994Z,75.52
2023-06-27T03:35:03.002Z,75.84
2023-06-27T03:40:05.909Z,75.31
2023-06-27T03:45:08.119Z,75.24
2023-06-27T03:50:10.152Z,74.64
2023-06-27T03:55:12.093Z,74.49
2023-06-27T04:00:15.707Z,74.04
2023-06-27T04:05:17.623Z,74.39
2023-06-27T04:10:20.421Z,74.07
2023-06-27T04:15:22.245Z,73.76
2023-06-27T04:20:24.228Z,73.50
2023-06-27T04:25:33.851Z,73.87
2023-06-27T04:30:37.752Z,73.83
2023-06-27T04:35:39.893Z,73.54
2023-06-27T04:40:45.083Z,73.19
2023-06-27T04:45:46.951Z,73.19
2023-06-27T04:50:48.805Z,73.24
2023-06-27T04:55:51.870Z,73.37
2023-06-27T05:00:53.762Z,72.97
2023-06-27T05:05:55.558Z,73.48
2023-06-27T05:10:57.921Z,73.32
2023-06-27T05:15:59.877Z,73.00
2023-06-27T05:21:01.562Z,72.92
2023-06-27T05:26:03.400Z,72.29
2023-06-27T05:31:05.305Z,72.30
2023-06-27T05:36:08.404Z,71.94
2023-06-27T05:41:10.186Z,71.76
2023-06-27T05:46:11.926Z,71.72
2023-06-27T05:51:13.696Z,71.44
2023-06-27T05:56:15.458Z,71.44
2023-06-27T06:01:17.132Z,70.90
2023-06-27T06:06:18.843Z,70.70
2023-06-27T06:11:20.497Z,70.65
2023-06-27T06:16:22.195Z,71.07
2023-06-27T06:21:23.883Z,71.36
2023-06-27T06:26:25.781Z,71.13
2023-06-27T06:31:27.389Z,71.24
2023-06-27T06:36:29.153Z,71.58
2023-06-27T06:41:31.542Z,72.16
2023-06-27T06:46:33.445Z,72.52
2023-06-27T06:51:35.212Z,73.22
2023-06-27T06:56:36.918Z,72.98
2023-06-27T07:01:38.720Z,73.05
2023-06-27T07:06:40.428Z,73.81
2023-06-27T07:11:42.242Z,73.73
2023-06-27T07:16:43.907Z,74.52
2023-06-27T07:21:45.659Z,74.47
2023-06-27T07:26:47.527Z,73.69
2023-06-27T07:31:49.138Z,73.29
2023-06-27T07:36:51.248Z,74.51
2023-06-27T07:41:53.037Z,74.96
2023-06-27T07:46:54.735Z,74.79
2023-06-27T07:51:56.557Z,74.82
2023-06-27T07:56:58.683Z,77.19
2023-06-27T08:02:00.562Z,78.91
2023-06-27T08:07:02.437Z,81.03
2023-06-27T08:12:07.458Z,82.66
2023-06-27T08:17:09.291Z,83.13
2023-06-27T08:22:10.996Z,84.15
2023-06-27T08:27:12.990Z,84.02
2023-06-27T08:32:14.669Z,84.50
2023-06-27T08:37:16.422Z,85.53
2023-06-27T08:42:18.623Z,84.86
2023-06-27T08:47:23.794Z,85.91
2023-06-27T08:52:26.810Z,85.41
2023-06-27T08:57:33.149Z,86.17
2023-06-27T09:02:35.787Z,85.46
2023-06-27T09:07:37.955Z,85.07
2023-06-27T09:12:44.898Z,85.35
2023-06-27T09:17:48.137Z,85.47
2023-06-27T09:22:51.015Z,85.03
2023-06-27T09:27:55.006Z,85.32
2023-06-27T09:32:59.134Z,85.80
2023-06-27T09:43:14.389Z,86.23
2023-06-27T09:48:19.678Z,86.50
2023-06-27T09:53:23.946Z,86.75
2023-06-27T09:58:32.620Z,86.77
2023-06-27T10:03:35.067Z,86.54
2023-06-27T10:08:37.839Z,85.61
2023-06-27T10:13:40.694Z,85.51
2023-06-27T10:18:43.578Z,84.48
2023-06-27T10:23:53.913Z,81.58
2023-06-27T10:28:56.069Z,81.17
2023-06-27T10:33:59.097Z,79.85
2023-06-27T10:39:00.765Z,78.86
2023-06-27T10:44:10.811Z,80.41
2023-06-27T10:49:12.656Z,79.75
2023-06-27T10:54:17.198Z,80.42
2023-06-27T10:59:20.356Z,80.71
2023-06-27T11:04:27.161Z,81.34
2023-06-27T11:09:30.919Z,80.98
2023-06-27T11:14:39.728Z,82.42
2023-06-27T11:19:43.670Z,82.66
2023-06-27T11:24:46.359Z,82.17
2023-06-27T11:29:48.084Z,81.71
2023-06-27T11:34:50.042Z,80.11
2023-06-27T11:39:55.679Z,80.53
2023-06-27T11:44:57.409Z,78.84
2023-06-27T11:50:10.056Z,79.74
2023-06-27T11:55:11.940Z,80.17
2023-06-27T12:00:27.508Z,80.25
2023-06-27T12:05:29.504Z,79.30
2023-06-27T12:10:32.850Z,78.34
2023-06-27T12:15:47.899Z,78.29
2023-06-27T12:20:51.001Z,77.89
2023-06-27T12:25:52.615Z,77.25
2023-06-27T12:30:54.357Z,75.75
2023-06-27T12:35:56.120Z,74.17
2023-06-27T12:40:58.538Z,73.34
2023-06-27T12:46:04.076Z,65.27
2023-06-27T12:51:05.871Z,62.70
2023-06-27T12:56:07.711Z,61.03
2023-06-27T13:01:11.249Z,61.58
2023-06-27T13:06:13.175Z,61.00
2023-06-27T13:11:16.616Z,60.92
2023-06-27T13:16:18.375Z,60.61
2023-06-27T13:21:20.304Z,59.10
2023-06-27T13:26:22.256Z,60.28
2023-06-27T13:31:24.863Z,58.42
2023-06-27T13:36:26.596Z,59.58
2023-06-27T13:41:29.226Z,60.33
2023-06-27T13:46:31.058Z,59.87
2023-06-27T13:51:32.892Z,60.07
2023-06-27T13:56:37.149Z,59.45
2023-06-27T14:01:40.178Z,59.29
2023-06-27T14:06:41.978Z,58.61
2023-06-27T14:11:43.982Z,57.97
2023-06-27T14:16:45.849Z,58.53
2023-06-27T14:21:47.509Z,57.47
2023-06-27T14:26:49.078Z,55.46
2023-06-27T14:31:50.770Z,55.17
2023-06-27T14:36:53.280Z,55.35
2023-06-27T14:41:55.062Z,56.26
2023-06-27T14:46:56.923Z,55.39
2023-06-27T14:51:58.566Z,55.86
2023-06-27T14:57:00.257Z,55.58
2023-06-27T15:02:01.969Z,55.89
2023-06-27T15:07:03.962Z,54.49
2023-06-27T15:12:06.462Z,54.41
2023-06-27T15:17:08.267Z,53.74
2023-06-27T15:22:09.933Z,53.57
2023-06-27T15:27:11.569Z,52.64
2023-06-27T15:32:14.074Z,52.10
2023-06-27T15:37:15.734Z,52.27
2023-06-27T15:42:17.454Z,52.13
2023-06-27T15:47:20.545Z,50.99
2023-06-27T15:52:22.225Z,51.07
2023-06-27T15:57:23.902Z,49.71
2023-06-27T16:02:25.815Z,47.75
2023-06-27T16:07:27.793Z,47.61
2023-06-27T16:12:29.521Z,47.94
2023-06-27T16:17:31.333Z,49.38
2023-06-27T16:22:33.400Z,49.75
2023-06-27T16:27:35.233Z,49.76
2023-06-27T16:32:37.159Z,49.91
2023-06-27T16:37:38.912Z,51.21
2023-06-27T16:42:40.692Z,49.40
2023-06-27T16:47:42.567Z,50.18
2023-06-27T16:52:44.477Z,48.54
2023-06-27T16:57:46.167Z,49.44
2023-06-27T17:02:49.409Z,49.12
2023-06-27T17:07:51.241Z,49.38
2023-06-27T17:12:53.433Z,49.73
2023-06-27T17:17:55.362Z,49.61
2023-06-27T17:22:57.193Z,49.45
2023-06-27T17:28:01.615Z,49.54
2023-06-27T17:33:03.571Z,49.47
2023-06-27T17:38:05.345Z,50.13
2023-06-27T17:43:08.496Z,50.32
2023-06-27T17:48:10.285Z,50.25
2023-06-27T17:53:11.994Z,51.17
2023-06-27T17:58:13.644Z,51.58
2023-06-27T18:03:15.405Z,51.49
2023-06-27T18:08:20.810Z,53.19
2023-06-27T18:13:22.738Z,53.75
2023-06-27T18:18:24.517Z,54.92
2023-06-27T18:23:26.224Z,55.48
2023-06-27T18:28:29.457Z,56.21
2023-06-27T18:33:31.193Z,57.08
2023-06-27T18:38:32.923Z,57.51
2023-06-27T18:43:34.968Z,58.04
2023-06-27T18:48:37.138Z,58.50
2023-06-27T18:53:38.886Z,59.37
2023-06-27T18:58:42.593Z,60.27
2023-06-27T19:03:44.576Z,60.53
2023-06-27T19:08:46.277Z,61.50
2023-06-27T19:13:48.137Z,62.31
2023-06-27T19:18:49.780Z,63.44
2023-06-27T19:23:52.893Z,63.53
2023-06-27T19:28:54.682Z,63.85
2023-06-27T19:33:56.395Z,64.43
2023-06-27T19:38:58.166Z,64.73
2023-06-27T19:43:59.829Z,64.46
2023-06-27T19:49:01.566Z,65.20
2023-06-27T19:54:04.290Z,64.57
2023-06-27T19:59:06.016Z,64.88
2023-06-27T20:04:07.825Z,65.42
2023-06-27T20:09:09.531Z,65.55
2023-06-27T20:14:11.426Z,65.73
2023-06-27T20:19:13.057Z,66.21
2023-06-27T20:24:15.317Z,66.52
2023-06-27T20:29:17.134Z,66.50
2023-06-27T20:34:18.953Z,66.81
2023-06-27T20:39:21.321Z,67.25
2023-06-27T20:44:23.277Z,67.05
2023-06-27T20:49:25.094Z,67.15
2023-06-27T20:54:26.910Z,67.50
2023-06-27T20:59:28.633Z,67.34
2023-06-27T21:04:30.342Z,67.47
2023-06-27T21:09:32.008Z,67.49
2023-06-27T21:14:33.650Z,67.47
2023-06-27T21:19:35.272Z,67.69
2023-06-27T21:24:36.970Z,67.93
2023-06-27T21:29:38.687Z,67.83
2023-06-27T21:34:40.474Z,67.70
2023-06-27T21:39:42.190Z,67.76
2023-06-27T21:44:44.174Z,67.42
2023-06-27T21:49:45.866Z,67.46
2023-06-27T21:54:47.818Z,67.72
2023-06-27T21:59:49.628Z,67.74
2023-06-27T22:04:51.992Z,66.96
2023-06-27T22:09:53.918Z,66.91
2023-06-27T22:14:55.572Z,66.43
2023-06-27T22:19:57.614Z,66.59
2023-06-27T22:24:59.585Z,66.22
2023-06-27T22:30:01.466Z,66.22
2023-06-27T22:35:03.309Z,66.95
2023-06-27T22:40:05.582Z,66.90
2023-06-27T22:45:07.566Z,66.49
2023-06-27T22:50:09.779Z,66.27
2023-06-27T22:55:11.384Z,66.60
2023-06-27T23:00:13.858Z,66.65
2023-06-27T23:05:15.546Z,66.37
2023-06-27T23:10:17.262Z,66.50
2023-06-27T23:15:18.945Z,66.24
2023-06-27T23:20:20.887Z,65.96
2023-06-27T23:25:22.986Z,65.68
2023-06-27T23:30:27.695Z,65.41
2023-06-27T23:35:29.569Z,64.94
2023-06-27T23:40:31.390Z,64.86
2023-06-27T23:45:39.013Z,64.93
2023-06-27T23:50:41.051Z,65.38
2023-06-27T23:55:43.040Z,65.45
